Time;durP1;ratioP1;P1;durP2;ratioP2;P2;SDS_P1;SDS_P2;PMS_P1;PMS_P2;Temp;Humidity;BMP_temperature;BMP_pressure;BME280_temperature;BME280_humidity;BME280_pressure;Samples;Min_cycle;Max_cycle;Signal;HPM_P1;HPM_P2
2022/12/04 02:18:14;;;;;;;28.07;17.70;;;-4.30;99.90;;;;;;5109048;27;20689;-69
2022/12/04 02:20:45;;;;;;;27.10;16.27;;;-4.00;99.90;;;;;;5089222;28;20657;-68
2022/12/04 02:23:50;;;;;;;26.97;15.90;;;-4.00;99.90;;;;;;5089223;28;20629;-69
2022/12/04 02:26:36;;;;;;;27.40;16.53;;;-4.00;99.90;;;;;;5086126;28;20202;-68
2022/12/04 02:29:10;;;;;;;25.57;16.23;;;-4.00;99.90;;;;;;5089279;28;20668;-69
2022/12/04 02:31:46;;;;;;;25.73;16.80;;;-3.90;99.90;;;;;;5088824;28;20218;-69
2022/12/04 02:34:18;;;;;;;27.27;14.77;;;-3.90;99.90;;;;;;5088692;28;20199;-69
2022/12/04 02:36:49;;;;;;;28.87;16.83;;;-3.90;99.90;;;;;;5087742;28;20213;-69
2022/12/04 02:39:22;;;;;;;26.77;16.63;;;-3.90;99.90;;;;;;5088272;28;20185;-69
2022/12/04 02:41:56;;;;;;;31.13;17.33;;;-3.90;99.90;;;;;;5088723;28;20237;-69
2022/12/04 02:44:26;;;;;;;30.27;17.47;;;-3.90;99.90;;;;;;5088458;28;20189;-69
2022/12/04 02:46:57;;;;;;;29.20;17.13;;;-3.90;99.90;;;;;;5086904;28;20200;-69
2022/12/04 02:49:30;;;;;;;29.73;17.17;;;-3.90;99.90;;;;;;5088470;28;20199;-69
2022/12/04 02:51:59;;;;;;;25.10;16.50;;;-4.00;99.90;;;;;;5086794;28;20208;-68
2022/12/04 02:54:32;;;;;;;26.13;16.13;;;-3.90;99.90;;;;;;5088208;28;20562;-69
2022/12/04 02:56:59;;;;;;;25.27;16.17;;;-4.00;99.90;;;;;;5088343;28;20208;-68
2022/12/04 02:59:33;;;;;;;25.67;16.63;;;-4.00;99.90;;;;;;5088133;28;20207;-69
2022/12/04 03:02:07;;;;;;;26.30;17.23;;;-4.00;99.90;;;;;;5086786;28;20196;-69
2022/12/04 03:04:34;;;;;;;28.10;17.03;;;-4.00;99.90;;;;;;5088156;28;20638;-69
2022/12/04 03:07:06;;;;;;;30.13;16.90;;;-4.00;99.90;;;;;;5087915;28;20211;-69
2022/12/04 03:09:37;;;;;;;28.30;17.63;;;-4.00;99.90;;;;;;5087851;28;20198;-69
2022/12/04 03:12:11;;;;;;;25.77;16.87;;;-4.00;99.90;;;;;;5087112;28;20218;-70
2022/12/04 03:14:44;;;;;;;26.67;16.43;;;-4.00;99.90;;;;;;5088218;28;20195;-69
2022/12/04 03:17:16;;;;;;;27.43;17.27;;;-4.00;99.90;;;;;;5084247;28;20236;-68
2022/12/04 03:19:48;;;;;;;28.27;16.80;;;-4.00;99.90;;;;;;5074666;28;20215;-70
2022/12/04 03:22:18;;;;;;;26.37;16.77;;;-4.00;99.90;;;;;;5064660;28;20671;-69
2022/12/04 03:24:51;;;;;;;25.40;16.97;;;-4.00;99.90;;;;;;5054328;28;20194;-69
2022/12/04 03:27:24;;;;;;;27.33;17.10;;;-4.00;99.90;;;;;;5054063;28;20226;-69
2022/12/04 03:29:58;;;;;;;26.57;17.53;;;-3.90;99.90;;;;;;5054604;28;20189;-69
2022/12/04 03:32:28;;;;;;;32.90;18.47;;;-4.00;99.90;;;;;;5053948;28;20555;-70
2022/12/04 03:34:59;;;;;;;25.37;16.73;;;-3.90;99.90;;;;;;5054523;28;20556;-71
2022/12/04 03:37:34;;;;;;;26.53;17.63;;;-3.90;99.90;;;;;;5054093;28;20213;-69
2022/12/04 03:40:06;;;;;;;27.43;17.27;;;-3.90;99.90;;;;;;5054456;28;20193;-69
2022/12/04 03:42:38;;;;;;;31.13;18.93;;;-4.00;99.90;;;;;;5068396;28;20206;-68
2022/12/04 03:45:12;;;;;;;27.03;17.33;;;-4.00;99.90;;;;;;5073920;28;20197;-69
2022/12/04 03:47:43;;;;;;;27.17;17.43;;;-4.00;99.90;;;;;;5074339;28;20194;-70
2022/12/04 03:50:16;;;;;;;30.10;18.73;;;-4.00;99.90;;;;;;5073999;28;20185;-71
2022/12/04 03:52:53;;;;;;;28.67;18.67;;;-4.00;99.90;;;;;;5056643;28;20208;-69
2022/12/04 03:55:26;;;;;;;30.53;18.13;;;-4.10;99.90;;;;;;5053491;28;20196;-69
2022/12/04 03:57:58;;;;;;;34.23;20.47;;;-4.10;99.90;;;;;;5055749;28;20224;-69
2022/12/04 04:00:27;;;;;;;28.43;18.63;;;-4.10;99.90;;;;;;5073619;28;20200;-68
2022/12/04 04:02:58;;;;;;;28.63;18.50;;;-4.10;99.90;;;;;;5073751;28;20217;-69
2022/12/04 04:05:27;;;;;;;27.83;18.07;;;-4.10;99.90;;;;;;5073595;28;20546;-69
2022/12/04 04:08:24;;;;;;;31.40;20.30;;;-4.10;99.90;;;;;;5072616;28;20209;-69
2022/12/04 04:10:45;;;;;;;27.83;17.80;;;-4.00;99.90;;;;;;5073251;28;20205;-69
2022/12/04 04:24:28;;;;;;;31.83;19.97;;;-4.00;99.90;;;;;;5073105;28;20237;-68
2022/12/04 04:26:57;;;;;;;31.20;19.57;;;-4.00;99.90;;;;;;5072846;28;20217;-70
2022/12/04 04:29:26;;;;;;;30.53;19.80;;;-4.10;99.90;;;;;;5071193;28;20228;-69
2022/12/04 04:32:01;;;;;;;31.00;19.07;;;-4.10;99.90;;;;;;5073290;28;20204;-69
2022/12/04 04:34:35;;;;;;;31.40;18.67;;;-4.10;99.90;;;;;;5073048;28;20198;-69
2022/12/04 04:37:09;;;;;;;37.97;20.50;;;-4.10;99.90;;;;;;5071304;28;20213;-69
2022/12/04 04:39:39;;;;;;;33.00;19.83;;;-4.10;99.90;;;;;;5068313;28;20228;-69
2022/12/04 04:42:14;;;;;;;30.10;19.00;;;-4.10;99.90;;;;;;5059873;28;20242;-67
2022/12/04 04:44:47;;;;;;;31.87;19.87;;;-4.10;99.90;;;;;;5071308;28;20203;-69
2022/12/04 04:47:23;;;;;;;33.10;19.60;;;-4.00;99.90;;;;;;5072821;28;20195;-68
2022/12/04 04:49:52;;;;;;;32.63;19.60;;;-4.10;99.90;;;;;;5072574;28;20195;-68
2022/12/04 04:52:21;;;;;;;33.37;20.73;;;-4.10;99.90;;;;;;5059054;28;20582;-69
2022/12/04 04:54:48;;;;;;;31.87;20.17;;;-4.10;99.90;;;;;;5052660;28;20202;-69
2022/12/04 04:57:26;;;;;;;33.60;20.13;;;-4.10;99.90;;;;;;5052031;28;20319;-68
2022/12/04 04:59:52;;;;;;;32.30;20.73;;;-4.20;99.90;;;;;;5052537;28;20193;-68
2022/12/04 05:02:21;;;;;;;36.57;22.10;;;-4.20;99.90;;;;;;5064191;28;20207;-69
2022/12/04 05:04:47;;;;;;;34.43;20.93;;;-4.20;99.90;;;;;;5072381;28;20207;-70
2022/12/04 05:07:14;;;;;;;30.17;19.87;;;-4.20;99.90;;;;;;5071874;28;20295;-69
2022/12/04 05:09:41;;;;;;;33.30;20.33;;;-4.20;99.90;;;;;;5071942;28;20207;-69
2022/12/04 05:12:08;;;;;;;34.23;20.00;;;-4.20;99.90;;;;;;5060636;28;20326;-69
2022/12/04 05:14:35;;;;;;;39.03;21.50;;;-4.30;99.90;;;;;;5052281;28;20598;-68
2022/12/04 05:17:03;;;;;;;35.60;21.27;;;-4.20;99.90;;;;;;5051480;28;20233;-68
2022/12/04 05:22:25;;;;;;;36.63;21.77;;;-4.20;99.90;;;;;;5042640;28;20197;-69
2022/12/04 05:24:53;;;;;;;34.50;21.10;;;-4.20;99.90;;;;;;5071899;28;20220;-70
2022/12/04 05:27:20;;;;;;;35.87;21.10;;;-4.20;99.90;;;;;;5072086;28;20225;-70
2022/12/04 05:29:47;;;;;;;34.17;20.93;;;-4.30;99.90;;;;;;5072009;28;20318;-69
2022/12/04 05:32:14;;;;;;;39.83;22.07;;;-4.30;99.90;;;;;;5070170;28;20208;-69
2022/12/04 05:34:42;;;;;;;37.63;21.33;;;-4.30;99.90;;;;;;5071957;28;20205;-69
2022/12/04 05:37:09;;;;;;;38.67;20.80;;;-4.30;99.90;;;;;;5071657;28;20590;-68
2022/12/04 05:39:36;;;;;;;35.97;20.27;;;-4.30;99.90;;;;;;5072020;28;20204;-69
2022/12/04 05:42:03;;;;;;;35.90;20.90;;;-4.30;99.90;;;;;;5062911;28;20205;-70
2022/12/04 05:44:30;;;;;;;36.73;21.10;;;-4.30;99.90;;;;;;5051733;28;20223;-69
2022/12/04 05:46:56;;;;;;;34.80;20.83;;;-4.30;99.90;;;;;;5051528;28;20201;-69
2022/12/04 05:49:23;;;;;;;39.07;22.10;;;-4.30;99.90;;;;;;5051796;28;20292;-69
2022/12/04 05:51:52;;;;;;;38.73;22.83;;;-4.30;99.90;;;;;;5056824;28;20222;-69
2022/12/04 05:54:19;;;;;;;43.73;24.77;;;-4.30;99.90;;;;;;5071642;28;20201;-69
2022/12/04 05:56:45;;;;;;;41.77;24.10;;;-4.30;99.90;;;;;;5071650;28;20220;-69
2022/12/04 05:59:12;;;;;;;41.50;23.70;;;-4.30;99.90;;;;;;5057264;28;20212;-69
2022/12/04 06:01:39;;;;;;;39.43;21.67;;;-4.40;99.90;;;;;;5051659;28;20547;-68
2022/12/04 06:04:06;;;;;;;37.33;21.70;;;-4.40;99.90;;;;;;5051057;28;20201;-68
2022/12/04 06:06:33;;;;;;;37.30;23.17;;;-4.40;99.90;;;;;;5051496;28;20203;-68
2022/12/04 06:09:02;;;;;;;43.37;24.40;;;-4.40;99.90;;;;;;5050869;28;20205;-69
2022/12/04 06:11:31;;;;;;;41.37;22.70;;;-4.40;99.90;;;;;;5051277;28;20219;-70
2022/12/04 06:14:00;;;;;;;46.47;23.37;;;-4.40;99.90;;;;;;5051251;28;20201;-69
2022/12/04 06:16:29;;;;;;;41.67;22.80;;;-4.40;99.90;;;;;;5051165;28;20272;-69
2022/12/04 10:35:39;;;;;;;36.07;20.50;;;-4.90;99.90;;;;;;5582839;22;21866;-67
2022/12/04 10:38:11;;;;;;;31.07;18.07;;;-4.90;99.90;;;;;;5039672;28;20567;-71
2022/12/04 10:40:45;;;;;;;32.27;17.80;;;-4.70;99.90;;;;;;5042058;28;20205;-69
2022/12/04 10:43:16;;;;;;;31.00;17.50;;;-4.60;99.90;;;;;;5040749;28;20203;-68
2022/12/04 10:45:43;;;;;;;26.30;16.90;;;-4.50;99.90;;;;;;5017011;28;20199;-68
2022/12/04 10:48:18;;;;;;;29.63;16.13;;;-4.50;99.90;;;;;;5025953;28;20206;-68
2022/12/04 10:50:46;;;;;;;29.23;15.13;;;-4.50;99.90;;;;;;5022543;28;20747;-69
2022/12/04 10:53:16;;;;;;;28.37;15.03;;;-4.50;99.90;;;;;;5009521;28;20708;-67
2022/12/04 10:55:42;;;;;;;24.20;15.00;;;-4.40;99.90;;;;;;5009382;28;20209;-68
2022/12/04 10:58:16;;;;;;;25.43;14.70;;;-4.30;99.90;;;;;;5023342;28;20224;-67
2022/12/04 11:00:45;;;;;;;23.33;14.03;;;-4.30;99.90;;;;;;5017980;28;20218;-68
2022/12/04 11:03:24;;;;;;;24.37;14.23;;;-4.30;99.90;;;;;;5023916;28;20614;-68
2022/12/04 11:05:56;;;;;;;23.87;14.27;;;-4.30;99.90;;;;;;5026002;28;20217;-69
2022/12/04 11:08:26;;;;;;;24.83;16.00;;;-4.30;99.90;;;;;;5009262;28;20559;-68
2022/12/04 11:10:59;;;;;;;27.53;15.10;;;-4.30;99.90;;;;;;5021479;28;20689;-67
2022/12/04 11:13:26;;;;;;;28.10;14.87;;;-4.30;99.90;;;;;;5015849;28;20277;-67
2022/12/04 11:15:54;;;;;;;24.50;13.30;;;-4.30;99.90;;;;;;5016353;28;20662;-67
2022/12/04 11:18:23;;;;;;;25.97;13.80;;;-4.30;99.90;;;;;;5018450;28;20245;-66
2022/12/04 11:20:53;;;;;;;21.40;12.73;;;-4.40;99.90;;;;;;5017421;28;20199;-68
2022/12/04 11:23:22;;;;;;;21.87;13.27;;;-4.30;99.90;;;;;;5016256;28;20611;-71
2022/12/04 11:25:51;;;;;;;25.75;14.43;;;-4.30;99.90;;;;;;5016503;28;20443;-67
2022/12/04 11:28:19;;;;;;;26.37;14.60;;;-4.30;99.90;;;;;;5015216;28;20195;-69
2022/12/04 11:30:51;;;;;;;21.90;13.33;;;-4.20;99.90;;;;;;5016573;28;20393;-72
2022/12/04 11:33:22;;;;;;;24.33;13.77;;;-4.20;99.90;;;;;;5028831;28;20191;-73
2022/12/04 11:35:55;;;;;;;28.77;14.90;;;-4.10;99.90;;;;;;5027659;28;20226;-70
2022/12/04 11:38:26;;;;;;;27.37;13.80;;;-4.10;99.90;;;;;;5028299;28;20692;-69
2022/12/04 11:40:55;;;;;;;28.40;14.17;;;-4.00;99.90;;;;;;5028515;28;20657;-70
2022/12/04 11:43:25;;;;;;;22.27;13.27;;;-3.90;99.90;;;;;;5028546;28;20252;-71
2022/12/04 11:45:57;;;;;;;22.67;12.67;;;-3.90;99.90;;;;;;5020257;28;20213;-69
2022/12/04 11:48:25;;;;;;;22.83;12.43;;;-3.90;99.90;;;;;;5015151;28;20245;-70
2022/12/04 11:51:01;;;;;;;20.43;11.73;;;-3.90;99.90;;;;;;5013680;28;20211;-70
2022/12/04 11:53:42;;;;;;;23.03;11.23;;;-3.80;99.90;;;;;;5014074;28;20202;-68
2022/12/04 11:56:24;;;;;;;26.33;12.87;;;-3.70;99.90;;;;;;5014029;28;20202;-67
2022/12/04 11:59:17;;;;;;;22.07;11.90;;;-3.70;99.90;;;;;;5014736;28;20191;-68
2022/12/04 12:01:50;;;;;;;18.37;10.80;;;-3.60;99.90;;;;;;5009209;28;20211;-69
2022/12/04 12:04:39;;;;;;;19.20;10.40;;;-3.60;99.90;;;;;;5004386;28;20588;-70
2022/12/04 12:07:20;;;;;;;20.20;10.17;;;-3.50;99.90;;;;;;5003287;28;20326;-68
2022/12/04 12:09:56;;;;;;;19.73;8.47;;;-3.50;99.90;;;;;;4995175;28;20564;-69
2022/12/04 12:12:35;;;;;;;19.20;10.30;;;-3.50;99.90;;;;;;5004525;28;20205;-69
2022/12/04 12:15:10;;;;;;;15.93;9.43;;;-3.50;99.90;;;;;;5002577;28;20226;-71
2022/12/04 12:17:42;;;;;;;20.17;9.67;;;-3.50;99.90;;;;;;5001936;28;20202;-70
2022/12/04 12:20:14;;;;;;;16.30;8.73;;;-3.50;99.90;;;;;;4995971;28;20210;-70
2022/12/04 12:23:00;;;;;;;17.93;9.17;;;-3.50;99.90;;;;;;5006555;28;20211;-68
2022/12/04 12:25:34;;;;;;;14.43;8.73;;;-3.50;99.90;;;;;;5010029;28;20203;-69
2022/12/04 12:28:17;;;;;;;20.07;9.47;;;-3.50;99.90;;;;;;5009535;28;20204;-70
2022/12/04 12:30:58;;;;;;;17.43;9.10;;;-3.40;99.90;;;;;;5012926;28;20232;-70
2022/12/04 12:33:29;;;;;;;18.30;8.67;;;-3.40;99.90;;;;;;5013401;28;20203;-69
2022/12/04 12:36:03;;;;;;;14.47;8.40;;;-3.40;99.90;;;;;;5013729;28;20235;-69
2022/12/04 12:38:34;;;;;;;13.70;7.50;;;-3.40;99.90;;;;;;5009127;28;20203;-71
2022/12/04 12:41:06;;;;;;;12.33;7.33;;;-3.40;99.90;;;;;;4996906;28;20634;-71
2022/12/04 12:43:35;;;;;;;14.40;7.53;;;-3.50;99.90;;;;;;5005443;28;20207;-69
2022/12/04 12:46:10;;;;;;;21.00;7.40;;;-3.50;99.90;;;;;;5012975;28;20222;-68
2022/12/04 12:48:44;;;;;;;18.27;8.03;;;-3.40;99.90;;;;;;5008179;28;20202;-69
2022/12/04 12:51:24;;;;;;;13.70;7.43;;;-3.50;99.90;;;;;;5009003;28;20208;-69
2022/12/04 12:53:53;;;;;;;11.37;7.30;;;-3.50;99.90;;;;;;5011111;28;20198;-69
2022/12/04 12:56:29;;;;;;;14.17;7.10;;;-3.50;99.90;;;;;;4993710;28;20211;-69
2022/12/04 12:59:00;;;;;;;12.73;7.37;;;-3.50;99.90;;;;;;4993810;28;20583;-70
2022/12/04 13:01:39;;;;;;;12.10;7.20;;;-3.50;99.90;;;;;;4994124;28;20227;-68
2022/12/04 13:04:12;;;;;;;12.43;6.77;;;-3.50;99.90;;;;;;4994445;28;20638;-69
2022/12/04 13:06:42;;;;;;;16.43;7.80;;;-3.50;99.90;;;;;;4994781;28;20257;-70
2022/12/04 13:09:16;;;;;;;13.00;7.50;;;-3.50;99.90;;;;;;4993789;28;20202;-68
2022/12/04 13:11:49;;;;;;;14.73;7.13;;;-3.50;99.90;;;;;;4994207;28;20191;-69
2022/12/04 13:14:16;;;;;;;14.57;7.70;;;-3.50;99.90;;;;;;4994098;28;20694;-69
2022/12/04 13:16:47;;;;;;;14.13;7.40;;;-3.60;99.90;;;;;;4994217;28;20204;-68
2022/12/04 13:19:20;;;;;;;11.37;6.57;;;-3.60;99.90;;;;;;4993890;28;20202;-68
2022/12/04 13:21:52;;;;;;;12.63;6.97;;;-3.60;99.90;;;;;;4993877;28;20192;-68
2022/12/04 13:25:04;;;;;;;13.90;7.03;;;-3.60;99.90;;;;;;4993471;28;20194;-69
2022/12/04 13:27:45;;;;;;;11.57;7.00;;;-3.60;99.90;;;;;;4975108;28;20214;-68
2022/12/04 13:30:17;;;;;;;13.90;7.50;;;-3.60;99.90;;;;;;4993692;28;20632;-69
2022/12/04 13:33:16;;;;;;;13.57;6.80;;;-3.70;99.90;;;;;;4993671;28;20196;-70
2022/12/04 13:36:12;;;;;;;12.57;6.93;;;-3.60;99.90;;;;;;4975971;28;20251;-71
2022/12/04 13:38:48;;;;;;;18.30;7.33;;;-3.70;99.90;;;;;;4993046;28;20237;-69
2022/12/04 13:41:18;;;;;;;14.50;6.93;;;-3.70;99.90;;;;;;4993302;28;20191;-70
2022/12/04 13:43:48;;;;;;;14.13;6.40;;;-3.70;99.90;;;;;;4993701;28;20217;-71
2022/12/04 13:46:37;;;;;;;12.93;6.90;;;-3.70;99.90;;;;;;4993858;28;20200;-70
2022/12/04 13:49:25;;;;;;;11.63;6.33;;;-3.70;99.90;;;;;;4990843;28;20207;-71
2022/12/04 13:51:52;;;;;;;11.10;6.43;;;-3.70;99.90;;;;;;4993908;28;20195;-70
2022/12/04 13:54:28;;;;;;;10.77;6.63;;;-3.70;99.90;;;;;;4993575;28;20241;-71
2022/12/04 13:56:56;;;;;;;16.37;6.70;;;-3.70;99.90;;;;;;4993584;28;20206;-71
2022/12/04 13:59:38;;;;;;;9.60;6.03;;;-3.70;99.90;;;;;;4992827;28;20227;-70
2022/12/04 14:02:25;;;;;;;11.33;6.23;;;-3.70;99.90;;;;;;4993226;28;20217;-71
2022/12/04 14:04:58;;;;;;;15.37;6.67;;;-3.70;99.90;;;;;;4993204;28;20195;-71
2022/12/04 14:07:29;;;;;;;15.80;6.67;;;-3.80;99.90;;;;;;4992887;28;20207;-70
2022/12/04 14:10:00;;;;;;;12.50;6.37;;;-3.80;99.90;;;;;;4992811;28;20202;-68
2022/12/04 14:12:31;;;;;;;9.57;6.10;;;-3.80;99.90;;;;;;4993288;28;20625;-68
2022/12/04 14:15:01;;;;;;;12.20;6.17;;;-3.80;99.90;;;;;;4992888;28;20215;-70
2022/12/04 14:17:30;;;;;;;10.57;6.30;;;-3.80;99.90;;;;;;4992642;28;20294;-68
2022/12/04 14:19:59;;;;;;;10.63;6.10;;;-3.90;99.90;;;;;;4992561;28;20208;-68
2022/12/04 14:22:38;;;;;;;10.50;6.50;;;-3.80;99.90;;;;;;4992910;28;20207;-70
2022/12/04 14:25:07;;;;;;;11.80;6.33;;;-3.80;99.90;;;;;;4992791;28;20647;-68
2022/12/04 14:27:43;;;;;;;10.53;6.43;;;-3.90;99.90;;;;;;4992581;28;20207;-71
2022/12/04 14:30:19;;;;;;;9.40;5.80;;;-3.90;99.90;;;;;;4992397;28;20205;-70
2022/12/04 14:32:46;;;;;;;11.23;5.97;;;-3.90;99.90;;;;;;4992997;28;20280;-68
2022/12/04 14:35:15;;;;;;;10.40;5.80;;;-3.80;99.90;;;;;;4992545;28;20237;-69
2022/12/04 14:37:50;;;;;;;11.87;6.00;;;-3.80;99.90;;;;;;4992835;28;20580;-70
2022/12/04 14:40:22;;;;;;;10.90;6.07;;;-3.90;99.90;;;;;;4992955;28;20631;-70
2022/12/04 14:42:50;;;;;;;9.43;5.83;;;-3.90;99.90;;;;;;4992753;28;20205;-70
2022/12/04 14:45:25;;;;;;;13.83;6.13;;;-3.90;99.90;;;;;;4992644;28;20207;-69
2022/12/04 14:48:05;;;;;;;15.00;6.37;;;-3.90;99.90;;;;;;4992755;28;20193;-69
2022/12/04 14:50:42;;;;;;;11.17;6.23;;;-3.90;99.90;;;;;;4992897;28;20195;-70
2022/12/04 14:53:17;;;;;;;9.73;5.67;;;-3.90;99.90;;;;;;4993193;28;20205;-69
2022/12/04 14:55:51;;;;;;;11.83;6.50;;;-3.90;99.90;;;;;;4993068;28;20215;-70
2022/12/04 14:58:30;;;;;;;12.03;6.80;;;-3.90;99.90;;;;;;4992648;28;20198;-68
2022/12/04 15:01:00;;;;;;;10.33;6.27;;;-3.90;99.90;;;;;;4992034;28;20227;-68
2022/12/04 15:03:29;;;;;;;21.23;6.77;;;-3.90;99.90;;;;;;4992959;28;20291;-71
2022/12/04 15:06:02;;;;;;;11.17;6.43;;;-3.90;99.90;;;;;;4992502;28;20211;-68
2022/12/04 15:08:29;;;;;;;13.07;6.63;;;-3.90;99.90;;;;;;4992445;28;20200;-69
2022/12/04 15:13:40;;;;;;;11.83;6.67;;;-3.90;99.90;;;;;;4992343;28;20230;-69
2022/12/04 15:16:16;;;;;;;11.30;6.37;;;-3.90;99.90;;;;;;4991943;28;20227;-68
2022/12/04 15:18:53;;;;;;;12.73;6.27;;;-3.90;99.90;;;;;;4992095;28;20187;-68
2022/12/04 15:21:21;;;;;;;9.50;5.70;;;-3.90;99.90;;;;;;4993987;28;20197;-71
2022/12/04 15:23:48;;;;;;;9.03;5.67;;;-3.90;99.90;;;;;;4996003;28;20207;-71
2022/12/04 15:26:19;;;;;;;12.90;6.17;;;-3.90;99.90;;;;;;4996170;28;20570;-69
2022/12/04 15:28:50;;;;;;;11.30;5.93;;;-3.90;99.90;;;;;;4995917;28;20262;-70
2022/12/04 15:31:21;;;;;;;12.13;6.10;;;-3.90;99.90;;;;;;4996051;28;20196;-68
2022/12/04 15:33:51;;;;;;;10.77;5.20;;;-3.90;99.90;;;;;;4996002;28;20295;-69
2022/12/04 15:36:26;;;;;;;10.70;6.00;;;-3.90;99.90;;;;;;4995313;28;20278;-70
2022/12/04 15:38:53;;;;;;;9.70;5.07;;;-3.90;99.90;;;;;;4995906;28;20201;-69
2022/12/04 15:41:30;;;;;;;12.70;6.00;;;-3.90;99.90;;;;;;4995854;28;20210;-70
2022/12/04 15:43:57;;;;;;;11.50;6.10;;;-3.90;99.90;;;;;;4995152;28;20188;-70
2022/12/04 15:46:30;;;;;;;9.93;6.10;;;-3.90;99.90;;;;;;4995917;28;20204;-70
2022/12/04 16:02:41;;;;;;;14.00;6.80;;;-4.00;99.90;;;;;;5088800;28;21078;-67
2022/12/04 16:05:13;;;;;;;9.73;6.10;;;-3.90;99.90;;;;;;5089265;28;20198;-71
2022/12/04 16:07:48;;;;;;;12.17;6.43;;;-4.00;99.90;;;;;;5089412;28;20230;-70
2022/12/04 16:10:21;;;;;;;11.70;6.50;;;-3.90;99.90;;;;;;5089154;28;20223;-70
2022/12/04 16:12:52;;;;;;;12.90;7.17;;;-4.00;99.90;;;;;;5089116;28;20553;-68
2022/12/04 16:15:19;;;;;;;12.30;7.07;;;-4.00;99.90;;;;;;5089163;28;20223;-69
2022/12/04 16:17:47;;;;;;;13.83;7.40;;;-4.00;99.90;;;;;;5089014;28;20211;-68
2022/12/04 16:20:15;;;;;;;14.13;6.80;;;-4.00;99.90;;;;;;5086032;28;20196;-68
2022/12/04 16:22:42;;;;;;;12.30;6.50;;;-4.10;99.90;;;;;;5087871;28;20200;-70
2022/12/04 16:25:11;;;;;;;13.73;7.03;;;-4.10;99.90;;;;;;5088660;28;20204;-69
2022/12/04 16:27:38;;;;;;;13.23;6.57;;;-4.10;99.90;;;;;;5088822;28;20543;-68
2022/12/04 16:30:06;;;;;;;12.40;6.90;;;-4.10;99.90;;;;;;5088562;28;20553;-67
2022/12/04 16:32:34;;;;;;;14.23;6.73;;;-4.10;99.90;;;;;;5086962;28;20236;-69
2022/12/04 16:35:02;;;;;;;14.00;7.40;;;-4.10;99.90;;;;;;5088708;28;20200;-68
2022/12/04 16:37:30;;;;;;;11.43;6.73;;;-4.10;99.90;;;;;;5088522;28;20215;-68
2022/12/04 16:39:57;;;;;;;12.67;7.03;;;-4.10;99.90;;;;;;5088383;28;20279;-66
2022/12/04 16:42:26;;;;;;;10.83;7.00;;;-4.10;99.90;;;;;;5085548;28;20204;-70
2022/12/04 16:44:53;;;;;;;14.40;7.33;;;-4.20;99.90;;;;;;5087869;28;20203;-68
2022/12/04 16:47:20;;;;;;;12.93;7.17;;;-4.10;99.90;;;;;;5085683;28;20746;-67
2022/12/04 16:49:49;;;;;;;12.63;7.20;;;-4.10;99.90;;;;;;5085595;28;20563;-68
2022/12/04 16:52:18;;;;;;;11.30;6.90;;;-4.20;99.90;;;;;;5088349;28;20232;-69
2022/12/04 16:54:45;;;;;;;14.83;7.27;;;-4.20;99.90;;;;;;5088131;28;20214;-70
2022/12/04 16:57:12;;;;;;;12.30;7.30;;;-4.20;99.90;;;;;;5076994;28;20197;-70
2022/12/04 16:59:39;;;;;;;11.67;6.87;;;-4.10;99.90;;;;;;5068192;28;20571;-69
2022/12/04 17:02:15;;;;;;;12.80;6.27;;;-4.20;99.90;;;;;;5074273;28;20232;-69
2022/12/04 17:04:41;;;;;;;12.40;7.70;;;-4.20;99.90;;;;;;5074483;28;20215;-68
2022/12/04 17:07:08;;;;;;;13.53;7.80;;;-4.30;99.90;;;;;;5074561;28;20211;-69
2022/12/04 17:09:36;;;;;;;12.73;7.60;;;-4.30;99.90;;;;;;5070304;28;20803;-69
2022/12/04 17:12:03;;;;;;;14.90;7.73;;;-4.20;99.90;;;;;;5072093;28;20229;-69
2022/12/04 17:14:30;;;;;;;12.60;7.93;;;-4.20;99.90;;;;;;5074616;28;20204;-67
2022/12/04 17:16:57;;;;;;;14.10;8.23;;;-4.30;99.90;;;;;;5073478;28;20205;-70
2022/12/04 17:19:24;;;;;;;13.87;7.60;;;-4.30;99.90;;;;;;5069626;28;20659;-66
2022/12/04 17:21:51;;;;;;;19.07;11.63;;;-4.30;99.90;;;;;;5071083;28;20193;-66
2022/12/04 17:24:18;;;;;;;13.80;8.27;;;-4.30;99.90;;;;;;5073223;28;20230;-66
2022/12/04 17:26:46;;;;;;;14.00;8.20;;;-4.30;99.90;;;;;;5070058;28;20208;-66
2022/12/04 17:29:12;;;;;;;13.80;8.30;;;-4.30;99.90;;;;;;5072027;28;20697;-65
2022/12/04 17:31:39;;;;;;;14.23;7.47;;;-4.30;99.90;;;;;;5071910;28;20673;-65
2022/12/04 17:34:06;;;;;;;18.83;8.30;;;-4.30;99.90;;;;;;5071314;28;20232;-67
2022/12/04 17:36:33;;;;;;;15.77;8.50;;;-4.40;99.90;;;;;;5070271;28;20201;-66
2022/12/04 17:39:01;;;;;;;14.57;8.10;;;-4.40;99.90;;;;;;5068201;28;20204;-65
2022/12/04 17:41:28;;;;;;;16.90;10.40;;;-4.40;99.90;;;;;;5072604;28;20200;-67
2022/12/04 17:43:59;;;;;;;12.63;7.63;;;-4.40;99.90;;;;;;5068488;28;20346;-65
2022/12/04 17:46:25;;;;;;;17.33;8.20;;;-4.40;99.90;;;;;;5073293;28;20197;-65
2022/12/04 17:48:55;;;;;;;18.40;8.47;;;-4.40;99.90;;;;;;5073104;28;20200;-65
2022/12/04 17:51:24;;;;;;;23.60;12.63;;;-4.50;99.90;;;;;;5071971;28;20216;-67
2022/12/04 17:53:51;;;;;;;15.37;7.50;;;-4.40;99.90;;;;;;5071611;28;20244;-64
2022/12/04 17:56:20;;;;;;;12.97;7.40;;;-4.40;99.90;;;;;;5071940;28;20200;-67
2022/12/04 17:58:48;;;;;;;12.83;7.57;;;-4.40;99.90;;;;;;5068817;28;20215;-66
2022/12/04 18:01:19;;;;;;;15.95;7.40;;;-4.40;99.90;;;;;;5071496;28;20438;-65
2022/12/04 18:03:50;;;;;;;12.83;7.47;;;-4.40;99.90;;;;;;5068708;28;20199;-66
2022/12/04 18:06:19;;;;;;;12.83;7.30;;;-4.50;99.90;;;;;;5071636;28;20200;-65
2022/12/04 18:08:46;;;;;;;12.07;6.97;;;-4.50;99.90;;;;;;5066737;28;20244;-66
2022/12/04 18:11:13;;;;;;;12.37;7.17;;;-4.50;99.90;;;;;;5071299;28;20229;-67
2022/12/04 18:13:39;;;;;;;12.70;7.23;;;-4.50;99.90;;;;;;5070368;28;20201;-65
2022/12/04 18:16:08;;;;;;;15.93;8.40;;;-4.50;99.90;;;;;;5071290;28;20660;-66
2022/12/04 18:18:37;;;;;;;14.40;7.40;;;-4.50;99.90;;;;;;5071534;28;20220;-65
2022/12/04 18:21:06;;;;;;;10.97;6.70;;;-4.50;99.90;;;;;;5069451;28;20223;-64
2022/12/04 18:23:33;;;;;;;14.07;7.30;;;-4.50;99.90;;;;;;5070411;28;20205;-66
2022/12/04 18:26:00;;;;;;;13.40;7.17;;;-4.50;99.90;;;;;;5070328;28;20205;-66
2022/12/04 18:28:29;;;;;;;12.63;6.93;;;-4.50;99.90;;;;;;5068427;28;20576;-65
2022/12/04 18:31:00;;;;;;;13.23;7.53;;;-4.50;99.90;;;;;;5071808;28;20677;-64
2022/12/04 18:33:29;;;;;;;14.70;7.80;;;-4.60;99.90;;;;;;5072089;28;20224;-67
2022/12/04 18:35:58;;;;;;;16.87;9.07;;;-4.60;99.90;;;;;;5052626;28;20693;-64
2022/12/04 18:38:26;;;;;;;14.07;8.17;;;-4.70;99.90;;;;;;5054058;28;20209;-67
2022/12/04 18:40:53;;;;;;;14.20;7.17;;;-4.70;99.90;;;;;;5071539;28;20223;-64
2022/12/04 18:43:20;;;;;;;12.17;7.43;;;-4.70;99.90;;;;;;5072638;28;20212;-65
2022/12/04 18:45:47;;;;;;;11.10;7.07;;;-4.70;99.90;;;;;;5072090;28;20680;-65
2022/12/04 18:48:15;;;;;;;12.43;6.97;;;-4.70;99.90;;;;;;5071809;28;20215;-66
2022/12/04 18:50:42;;;;;;;12.67;7.30;;;-4.70;99.90;;;;;;5071398;28;20243;-65
2022/12/04 18:53:10;;;;;;;15.20;8.27;;;-4.70;99.90;;;;;;5066959;28;20257;-64
2022/12/04 18:55:38;;;;;;;14.27;7.50;;;-4.80;99.90;;;;;;5072161;28;20211;-65
2022/12/04 18:58:05;;;;;;;13.23;7.90;;;-4.80;99.90;;;;;;5071144;28;20219;-66
2022/12/04 19:00:33;;;;;;;12.33;7.53;;;-4.80;99.90;;;;;;5068269;28;20235;-65
2022/12/04 19:02:59;;;;;;;15.20;7.47;;;-4.80;99.90;;;;;;5071603;28;20204;-64
2022/12/04 19:05:26;;;;;;;15.97;9.17;;;-4.80;99.90;;;;;;5071473;28;20691;-67
2022/12/04 19:07:53;;;;;;;11.13;7.20;;;-4.80;99.90;;;;;;5071484;28;20217;-65
2022/12/04 19:10:21;;;;;;;13.17;7.30;;;-4.80;99.90;;;;;;5072388;28;20207;-65
2022/12/04 19:12:49;;;;;;;13.37;7.40;;;-4.80;99.90;;;;;;5071129;28;20227;-65
2022/12/04 19:15:16;;;;;;;13.97;7.73;;;-4.80;99.90;;;;;;5070480;28;20209;-64
2022/12/04 19:17:43;;;;;;;13.00;7.30;;;-4.80;99.90;;;;;;5071684;28;20200;-67
2022/12/04 19:20:11;;;;;;;17.17;8.23;;;-4.90;99.90;;;;;;5072229;28;20204;-65
2022/12/04 19:22:38;;;;;;;15.70;7.93;;;-4.80;99.90;;;;;;5070050;28;20200;-66
2022/12/04 19:25:06;;;;;;;15.30;8.47;;;-4.90;99.90;;;;;;5065987;28;20225;-67
2022/12/04 19:27:34;;;;;;;14.17;8.47;;;-4.90;99.90;;;;;;5063891;28;20220;-67
2022/12/04 19:30:01;;;;;;;17.57;8.63;;;-5.00;99.90;;;;;;5071129;28;20689;-67
2022/12/04 19:32:28;;;;;;;17.97;8.63;;;-5.00;99.90;;;;;;5072074;28;20713;-66
2022/12/04 19:34:54;;;;;;;21.50;9.63;;;-5.00;99.90;;;;;;5071759;28;20591;-67
2022/12/04 19:37:21;;;;;;;14.90;9.00;;;-5.00;99.90;;;;;;5072046;28;20570;-67
2022/12/04 19:39:48;;;;;;;20.30;9.50;;;-5.00;99.90;;;;;;5070954;28;20204;-67
2022/12/04 19:42:15;;;;;;;17.53;9.73;;;-5.00;99.90;;;;;;5067387;28;20193;-66
2022/12/04 19:44:43;;;;;;;14.57;8.77;;;-5.00;99.90;;;;;;5071186;28;20201;-67
2022/12/04 19:47:10;;;;;;;15.07;8.50;;;-5.00;99.90;;;;;;5067907;28;20216;-65
2022/12/04 19:49:37;;;;;;;14.03;8.80;;;-5.10;99.90;;;;;;5070220;28;20215;-66
2022/12/04 19:52:04;;;;;;;16.03;8.50;;;-5.10;99.90;;;;;;5071368;28;20251;-64
2022/12/04 19:54:31;;;;;;;13.43;7.40;;;-5.10;99.90;;;;;;5069109;28;20219;-67
2022/12/04 19:56:57;;;;;;;15.50;7.73;;;-5.10;99.90;;;;;;5070724;28;20204;-64